West Coxsackie, New York
Current Conditions -  °F | °C
As of 12:51 AM on Sunday 21 Dec 2014 (Local Time) from KALB Reporting Station
Overcast Overcast  
Wind Chill: 28°   Ceiling: 2600
Heat Index: 28°   Visibility: 10mi
Dew Point: 19°   Wind: 3mph
Humidity: 69%   Direction: 340°NNW
Pressure: 30.3"   Gusts: NA
Location:  42.36°N, 73.82°W
Report Text: KALB 210551Z 34003KT 10SM BKN026 OVC031 M02/M07 A3030 RMK AO2 SLP265 4/001 T10221072 11017 21028 56007
Loading
Personal Weather Stations






























Interactive Weather Map New forecast layout! Learn more

10-Day Weather Forecast

Advertisements
Track Severe Weather on mobile